Grass Valley, California
Current Conditions -  °F | °C
As of 10:40 PM on Thursday 30 Oct 2014 (Local Time) from KGOO Reporting Station
Clear Clear  
Wind Chill: 59°   Ceiling: Unl
Heat Index: 59°   Visibility: 10mi
Dew Point: 39°   Wind: 0mph
Humidity: 48%   Direction: NA
Pressure: 29.95"   Gusts: NA
Location:  39.22°N, 121.06°W
Report Text: KGOO 310540Z AUTO 00000KT 10SM CLR 15/04 A2995 RMK AO1
Loading
Personal Weather Stations






























Interactive Weather Map
Tropical Storm Tracking
New forecast layout! Learn more

10-Day Weather Forecast

Advertisements
Track Severe Weather on mobile